Conmar Elbe — 5BQU3 — position and weather

sailwx.info

Track history (hours):
 
Tides and Currents Weather Stations Pressure Air Temp Water Temp Dewpoint Dewpoint Depression Visibility Wind Speed Wind Dir Waves Ship Positions

Conmar Elbe

Last reported at 2017-Dec-11 17:00 UTC. Time now 2017-Dec-13 16:48 UTC.
Position N 28°29' W 016°14'.

Length 133 m; draft 5.4 m.

Type: Cargo ship. MMSI: 209724000.

Date/timePositionNaut miles runAvg speedWind from/ knotsBaromVisibWave heightAir tempDewpointWater temp
2017-Dec-11 17:00N 28°29' W 016°14'2 3.8
2017-Dec-11 16:30N 28°28' W 016°12'2 3.6
2017-Dec-11 16:01N 28°27' W 016°10'816.7
2017-Dec-11 15:30N 28°25' W 016°01'816.4
2017-Dec-11 15:00N 28°21' W 015°53'816.5
2017-Dec-11 14:30N 28°18' W 015°44'816.1
2017-Dec-11 14:00N 28°15' W 015°35'815.8
2017-Dec-11 13:30N 28°13' W 015°27'713.0
2017-Dec-11 13:00N 28°07' W 015°23'2 4.0
2017-Dec-11 12:24N 28°09' W 015°25'0 0.0
2017-Dec-11 11:54N 28°09' W 015°25'0 0.0
2017-Dec-11 11:27N 28°09' W 015°25'0 0.0
2017-Dec-11 10:57N 28°09' W 015°25'0 0.0
2017-Dec-11 10:27N 28°09' W 015°25'0 0.0
2017-Dec-11 09:54N 28°09' W 015°25'0 0.0
2017-Dec-11 09:27N 28°09' W 015°25'0 0.0
2017-Dec-11 08:57N 28°09' W 015°25'0 0.0
2017-Dec-11 08:27N 28°09' W 015°25'0 0.0
2017-Dec-11 08:00N 28°09' W 015°25'0 0.0
2017-Dec-11 07:30N 28°09' W 015°25'0 0.0
2017-Dec-11 07:00N 28°09' W 015°25'1 1.1
2017-Dec-11 06:30N 28°08' W 015°25'2 3.8
2017-Dec-11 06:01N 28°07' W 015°23'510.1
2017-Dec-11 05:31N 28°09' W 015°18'611.9
2017-Dec-11 05:01N 28°13' W 015°13'612.0
2017-Dec-11 04:31N 28°18' W 015°09'611.9
2017-Dec-11 04:00N 28°22' W 015°04'612.0
2017-Dec-11 03:30N 28°27' W 014°60'612.6
2017-Dec-11 03:00N 28°31' W 014°55'713.3
2017-Dec-11 02:30N 28°37' W 014°50'813.4
2017-Dec-11 01:55N 28°43' W 014°44'  
2017-Dec-04 10:01N 28°09' W 015°25'0 0.0
2017-Dec-04 09:58N 28°09' W 015°25'0 0.0
2017-Dec-04 09:28N 28°09' W 015°25'0 0.0
2017-Dec-04 08:58N 28°09' W 015°25'0 0.0
2017-Dec-04 08:28N 28°09' W 015°25'0 0.0
2017-Dec-04 07:58N 28°09' W 015°25'0 0.0
2017-Dec-04 07:30N 28°09' W 015°25'2 4.0
2017-Dec-04 07:00N 28°07' W 015°24'2 3.3
2017-Dec-04 06:30N 28°08' W 015°22'1 1.1
2017-Dec-04 06:00N 28°07' W 015°22'612.8
2017-Dec-04 05:30N 28°11' W 015°16'816.7
2017-Dec-04 05:00N 28°17' W 015°10'816.5
2017-Dec-04 04:30N 28°23' W 015°04'816.2
2017-Dec-04 04:01N 28°30' W 014°58'816.1
2017-Dec-04 03:31N 28°36' W 014°52'  
Track history (hours):
 
Tides and Currents Weather Stations Pressure Air Temp Water Temp Dewpoint Dewpoint Depression Visibility Wind Speed Wind Dir Waves Ship Positions

Conmar Elbe

Last reported at 2017-Dec-11 17:00 UTC. Time now 2017-Dec-13 16:48 UTC.
Position N 28°29' W 016°14'.

Length 133 m; draft 5.4 m.

Type: Cargo ship. MMSI: 209724000.

Date/timePositionNaut miles runAvg speedWind from/ knotsBaromVisibWave heightAir tempDewpointWater temp
2017-Dec-11 17:00N 28°29' W 016°14'2 3.8
2017-Dec-11 16:30N 28°28' W 016°12'2 3.6
2017-Dec-11 16:01N 28°27' W 016°10'816.7
2017-Dec-11 15:30N 28°25' W 016°01'816.4
2017-Dec-11 15:00N 28°21' W 015°53'816.5
2017-Dec-11 14:30N 28°18' W 015°44'816.1
2017-Dec-11 14:00N 28°15' W 015°35'815.8
2017-Dec-11 13:30N 28°13' W 015°27'713.0
2017-Dec-11 13:00N 28°07' W 015°23'2 4.0
2017-Dec-11 12:24N 28°09' W 015°25'0 0.0
2017-Dec-11 11:54N 28°09' W 015°25'0 0.0
2017-Dec-11 11:27N 28°09' W 015°25'0 0.0
2017-Dec-11 10:57N 28°09' W 015°25'0 0.0
2017-Dec-11 10:27N 28°09' W 015°25'0 0.0
2017-Dec-11 09:54N 28°09' W 015°25'0 0.0
2017-Dec-11 09:27N 28°09' W 015°25'0 0.0
2017-Dec-11 08:57N 28°09' W 015°25'0 0.0
2017-Dec-11 08:27N 28°09' W 015°25'0 0.0
2017-Dec-11 08:00N 28°09' W 015°25'0 0.0
2017-Dec-11 07:30N 28°09' W 015°25'0 0.0
2017-Dec-11 07:00N 28°09' W 015°25'1 1.1
2017-Dec-11 06:30N 28°08' W 015°25'2 3.8
2017-Dec-11 06:01N 28°07' W 015°23'510.1
2017-Dec-11 05:31N 28°09' W 015°18'611.9
2017-Dec-11 05:01N 28°13' W 015°13'612.0
2017-Dec-11 04:31N 28°18' W 015°09'611.9
2017-Dec-11 04:00N 28°22' W 015°04'612.0
2017-Dec-11 03:30N 28°27' W 014°60'612.6
2017-Dec-11 03:00N 28°31' W 014°55'713.3
2017-Dec-11 02:30N 28°37' W 014°50'813.4
2017-Dec-11 01:55N 28°43' W 014°44'  
2017-Dec-04 10:01N 28°09' W 015°25'0 0.0
2017-Dec-04 09:58N 28°09' W 015°25'0 0.0
2017-Dec-04 09:28N 28°09' W 015°25'0 0.0
2017-Dec-04 08:58N 28°09' W 015°25'0 0.0
2017-Dec-04 08:28N 28°09' W 015°25'0 0.0
2017-Dec-04 07:58N 28°09' W 015°25'0 0.0
2017-Dec-04 07:30N 28°09' W 015°25'2 4.0
2017-Dec-04 07:00N 28°07' W 015°24'2 3.3
2017-Dec-04 06:30N 28°08' W 015°22'1 1.1
2017-Dec-04 06:00N 28°07' W 015°22'612.8
2017-Dec-04 05:30N 28°11' W 015°16'816.7
2017-Dec-04 05:00N 28°17' W 015°10'816.5
2017-Dec-04 04:30N 28°23' W 015°04'816.2
2017-Dec-04 04:01N 28°30' W 014°58'816.1
2017-Dec-04 03:31N 28°36' W 014°52'  

Dump ship's entire track history